Time;durP1;ratioP1;P1;durP2;ratioP2;P2;SDS_P1;SDS_P2;PMS_P1;PMS_P2;Temp;Humidity;BMP_temperature;BMP_pressure;BME280_temperature;BME280_humidity;BME280_pressure;Samples;Min_cycle;Max_cycle;Signal;HPM_P1;HPM_P2
2023/09/24 00:02:06;;;;;;;8.40;7.10;;;;;;;13.33;100.00;97007.95;111586;1244;22510;-78
2023/09/24 00:04:34;;;;;;;11.10;7.30;;;;;;;13.31;100.00;97005.16;111539;1244;24189;-78
2023/09/24 00:07:03;;;;;;;8.40;6.70;;;;;;;13.28;100.00;97003.86;111593;1244;22708;-78
2023/09/24 00:09:31;;;;;;;11.20;8.10;;;;;;;13.23;100.00;96998.33;111560;1244;22756;-78
2023/09/24 00:12:00;;;;;;;10.30;7.50;;;;;;;13.21;100.00;97005.80;111557;1244;25033;-78
2023/09/24 00:14:30;;;;;;;11.20;7.80;;;;;;;13.21;100.00;97007.88;111541;1244;25384;-78
2023/09/24 00:17:00;;;;;;;9.40;7.90;;;;;;;13.20;100.00;97007.10;111569;1244;24201;-78
2023/09/24 00:19:30;;;;;;;10.60;8.30;;;;;;;13.20;100.00;97009.39;111583;1244;22513;-78
2023/09/24 00:22:00;;;;;;;10.70;9.00;;;;;;;13.20;100.00;97005.23;111574;1244;22529;-78
2023/09/24 00:24:29;;;;;;;11.20;9.00;;;;;;;13.19;100.00;97012.00;111558;1244;22578;-78
2023/09/24 00:26:57;;;;;;;11.60;9.80;;;;;;;13.19;100.00;97009.61;111565;1244;22507;-78
2023/09/24 00:29:25;;;;;;;12.30;11.00;;;;;;;13.17;100.00;97014.89;111563;1244;22504;-78
2023/09/24 00:31:54;;;;;;;12.80;11.30;;;;;;;13.18;100.00;97010.63;111544;1244;22517;-78
2023/09/24 00:34:22;;;;;;;12.60;11.10;;;;;;;13.18;100.00;97013.19;111554;1244;22485;-78
2023/09/24 00:36:51;;;;;;;15.50;11.60;;;;;;;13.17;100.00;97014.30;111567;1244;25403;-78
2023/09/24 00:39:19;;;;;;;14.20;12.80;;;;;;;13.17;100.00;97013.66;111563;1244;24131;-78
2023/09/24 00:41:50;;;;;;;15.60;13.30;;;;;;;13.17;100.00;97007.11;111547;1244;25709;-78
2023/09/24 00:44:18;;;;;;;13.30;11.90;;;;;;;13.14;100.00;97000.71;111565;1244;22501;-78
2023/09/24 00:46:47;;;;;;;14.00;12.30;;;;;;;13.14;100.00;96995.81;111578;1244;22508;-78
2023/09/24 00:49:16;;;;;;;14.10;12.70;;;;;;;13.12;100.00;96998.02;111533;1244;22546;-78
2023/09/24 00:51:45;;;;;;;15.10;13.60;;;;;;;13.13;100.00;96997.68;111571;1244;26178;-78
2023/09/24 00:54:21;;;;;;;14.80;13.30;;;;;;;13.12;100.00;96997.33;111613;1244;24303;-78
2023/09/24 00:56:50;;;;;;;15.60;14.10;;;;;;;13.12;100.00;97004.40;111454;1244;22529;-78
2023/09/24 00:59:19;;;;;;;15.70;13.50;;;;;;;13.14;100.00;97010.29;111575;1244;22571;-78
2023/09/24 01:01:49;;;;;;;22.00;15.00;;;;;;;13.14;100.00;97013.55;111541;1244;22508;-78
2023/09/24 01:04:18;;;;;;;14.30;12.90;;;;;;;13.13;100.00;97013.22;111568;1244;24179;-78
2023/09/24 01:06:46;;;;;;;14.20;12.60;;;;;;;13.13;100.00;97011.00;111580;1244;22557;-78
2023/09/24 01:09:20;;;;;;;14.30;12.90;;;;;;;13.10;100.00;97012.79;111517;1244;22602;-78
2023/09/24 01:11:50;;;;;;;13.50;12.10;;;;;;;13.09;100.00;97017.90;111549;1244;22507;-78
2023/09/24 01:14:19;;;;;;;12.90;11.40;;;;;;;13.07;100.00;97017.59;111493;1242;23895;-77
2023/09/24 01:16:48;;;;;;;11.50;10.30;;;;;;;13.04;100.00;97017.78;111575;1244;26678;-78
2023/09/24 01:19:17;;;;;;;12.70;10.40;;;;;;;12.99;100.00;97024.67;111554;1244;22500;-78
2023/09/24 01:21:49;;;;;;;12.30;10.50;;;;;;;12.97;100.00;97027.58;111520;1244;22516;-77
2023/09/24 01:24:21;;;;;;;11.70;10.60;;;;;;;12.96;100.00;97027.48;111533;1239;22639;-78
2023/09/24 01:26:49;;;;;;;12.20;11.00;;;;;;;12.96;100.00;97032.58;111615;1244;23878;-78
2023/09/24 01:29:18;;;;;;;12.20;10.90;;;;;;;12.94;100.00;97039.77;111550;1244;25277;-78
2023/09/24 01:31:46;;;;;;;13.50;10.60;;;;;;;12.95;100.00;97050.58;111528;1244;25285;-78
2023/09/24 01:34:15;;;;;;;12.70;11.40;;;;;;;12.96;100.00;97060.05;111498;1244;24009;-77
2023/09/24 01:36:46;;;;;;;14.00;10.60;;;;;;;12.96;100.00;97061.86;111538;1244;22496;-78
2023/09/24 01:39:15;;;;;;;10.50;9.40;;;;;;;12.96;100.00;97064.31;111544;1244;25253;-78
2023/09/24 01:41:43;;;;;;;;;;;;;;;12.95;100.00;97068.67;111524;1244;24227;-78
2023/09/24 01:44:13;;;;;;;9.00;8.00;;;;;;;12.91;100.00;97073.17;111512;1244;22511;-78
2023/09/24 01:46:47;;;;;;;10.80;7.90;;;;;;;12.84;100.00;97079.59;111507;1244;25732;-78
2023/09/24 01:49:18;;;;;;;9.30;7.60;;;;;;;12.83;100.00;97082.16;111594;1244;22528;-78
2023/09/24 01:51:47;;;;;;;9.20;7.40;;;;;;;12.81;100.00;97090.46;111512;1244;25420;-77
2023/09/24 01:54:16;;;;;;;8.90;7.70;;;;;;;12.80;100.00;97101.49;111522;1244;22749;-77
2023/09/24 01:56:44;;;;;;;8.60;7.80;;;;;;;12.78;100.00;97108.10;111560;1244;24394;-78
2023/09/24 01:59:17;;;;;;;9.40;8.50;;;;;;;12.76;100.00;97115.58;111504;1244;26816;-78
2023/09/24 02:01:46;;;;;;;11.30;8.60;;;;;;;12.73;100.00;97117.58;111530;1244;22981;-78
2023/09/24 02:04:16;;;;;;;9.20;8.30;;;;;;;12.74;100.00;97126.50;111499;1244;22733;-77
2023/09/24 02:06:45;;;;;;;8.80;7.90;;;;;;;12.77;100.00;97124.60;111528;1244;22527;-78
2023/09/24 02:09:16;;;;;;;8.50;7.60;;;;;;;12.77;100.00;97129.55;111505;1244;22581;-78
2023/09/24 02:11:45;;;;;;;8.50;7.60;;;;;;;12.77;100.00;97139.13;111507;1244;25409;-77
2023/09/24 02:14:15;;;;;;;8.40;7.60;;;;;;;12.75;100.00;97144.48;111506;1244;25401;-77
2023/09/24 02:16:45;;;;;;;7.80;6.80;;;;;;;12.72;100.00;97149.30;111570;1244;23753;-78
2023/09/24 02:19:17;;;;;;;8.90;6.80;;;;;;;12.70;100.00;97149.52;111546;1241;22913;-77
2023/09/24 02:21:46;;;;;;;6.10;5.50;;;;;;;12.65;100.00;97143.91;111537;1244;22496;-78
2023/09/24 02:24:15;;;;;;;8.50;5.70;;;;;;;12.60;100.00;97145.81;111500;1244;22488;-77
2023/09/24 02:26:44;;;;;;;6.30;5.60;;;;;;;12.57;100.00;97145.80;111558;1244;22965;-78
2023/09/24 02:29:18;;;;;;;8.10;6.30;;;;;;;12.51;100.00;97149.92;111597;1244;22522;-78
2023/09/24 02:31:52;;;;;;;7.60;5.90;;;;;;;12.47;100.00;97149.05;111610;1244;23761;-78
2023/09/24 02:34:21;;;;;;;6.70;5.90;;;;;;;12.48;100.00;97152.92;111586;1244;25241;-78
2023/09/24 02:36:52;;;;;;;7.40;6.30;;;;;;;12.45;100.00;97151.02;111626;1244;23901;-78
2023/09/24 02:39:22;;;;;;;7.50;6.50;;;;;;;12.43;100.00;97154.61;111561;1244;22612;-77
2023/09/24 02:41:54;;;;;;;6.90;6.20;;;;;;;12.44;100.00;97150.40;111603;1244;22499;-78
2023/09/24 02:44:24;;;;;;;8.40;6.60;;;;;;;12.43;100.00;97152.37;111610;1244;22504;-77
2023/09/24 02:46:54;;;;;;;7.50;6.50;;;;;;;12.39;100.00;97154.52;111595;1238;24195;-78
2023/09/24 02:49:23;;;;;;;8.50;6.50;;;;;;;12.37;100.00;97156.17;111582;1244;22565;-77
2023/09/24 02:51:53;;;;;;;10.30;6.70;;;;;;;12.32;100.00;97155.58;111546;1244;22560;-77
2023/09/24 02:54:23;;;;;;;6.50;5.30;;;;;;;12.26;100.00;97151.42;111601;1244;47879;-77
2023/09/24 02:56:56;;;;;;;5.70;5.10;;;;;;;12.20;100.00;97148.90;111597;1230;22502;-78
2023/09/24 02:59:27;;;;;;;6.00;5.30;;;;;;;12.14;100.00;97143.89;111588;1244;22729;-78
2023/09/24 03:01:56;;;;;;;7.40;5.00;;;;;;;12.10;100.00;97149.39;111573;1244;23797;-77
2023/09/24 03:04:26;;;;;;;5.00;4.30;;;;;;;12.05;100.00;97155.20;111527;1244;24862;-77
2023/09/24 03:06:54;;;;;;;;;;;;;;;11.99;100.00;97159.60;111609;1244;23691;-77
2023/09/24 03:09:24;;;;;;;5.50;4.70;;;;;;;11.98;100.00;97163.32;111560;1244;25836;-77
2023/09/24 03:11:53;;;;;;;6.00;4.80;;;;;;;12.00;100.00;97162.89;111525;1244;22529;-78
2023/09/24 03:14:23;;;;;;;5.40;4.80;;;;;;;11.97;100.00;97169.54;111522;1244;23253;-77
2023/09/24 03:16:51;;;;;;;7.60;5.00;;;;;;;11.92;100.00;97170.25;111604;1244;22513;-77
2023/09/24 03:19:20;;;;;;;6.40;5.00;;;;;;;11.92;100.00;97175.29;111570;1244;23849;-77
2023/09/24 03:21:49;;;;;;;5.40;4.50;;;;;;;11.92;100.00;97174.34;111571;1244;25082;-78
2023/09/24 03:24:18;;;;;;;6.30;4.80;;;;;;;11.92;100.00;97176.30;111529;1244;25402;-78
2023/09/24 03:26:47;;;;;;;5.00;4.50;;;;;;;11.93;100.00;97186.45;111543;1244;25888;-78
2023/09/24 03:29:15;;;;;;;5.60;4.80;;;;;;;11.94;100.00;97193.62;111528;1244;22499;-78
2023/09/24 03:31:44;;;;;;;5.80;4.90;;;;;;;11.92;100.00;97193.58;111549;1244;23877;-78
2023/09/24 03:34:13;;;;;;;5.30;4.10;;;;;;;11.92;100.00;97192.09;111535;1244;26168;-78
2023/09/24 03:36:45;;;;;;;4.30;3.90;;;;;;;11.92;100.00;97189.22;111536;1244;22756;-78
2023/09/24 03:39:14;;;;;;;5.80;3.90;;;;;;;11.92;100.00;97192.51;111600;1244;22630;-78
2023/09/24 03:41:44;;;;;;;5.50;4.10;;;;;;;11.88;100.00;97197.85;111559;1244;22611;-78
2023/09/24 03:44:13;;;;;;;4.40;3.60;;;;;;;11.85;100.00;97207.16;111535;1244;22582;-78
2023/09/24 03:46:44;;;;;;;4.60;3.20;;;;;;;11.87;100.00;97206.79;111522;1244;22679;-78
2023/09/24 03:49:12;;;;;;;3.50;3.10;;;;;;;11.83;100.00;97210.83;111534;1234;22511;-78
2023/09/24 03:51:41;;;;;;;4.30;3.10;;;;;;;11.82;100.00;97207.55;111553;1244;22525;-78
2023/09/24 03:54:11;;;;;;;5.60;3.60;;;;;;;11.82;100.00;97205.67;111495;1244;25325;-78
2023/09/24 03:56:42;;;;;;;4.70;3.60;;;;;;;11.81;100.00;97206.30;111503;1244;23541;-78
2023/09/24 03:59:10;;;;;;;4.30;3.90;;;;;;;11.81;100.00;97213.21;111520;1244;22497;-78
2023/09/24 04:01:43;;;;;;;4.10;3.70;;;;;;;11.79;100.00;97217.68;111529;1244;22505;-78
2023/09/24 04:04:12;;;;;;;6.00;4.60;;;;;;;11.79;100.00;97212.53;111543;1244;24045;-78
2023/09/24 04:06:43;;;;;;;5.30;4.80;;;;;;;11.79;100.00;97210.98;111507;1244;25376;-78
2023/09/24 04:09:13;;;;;;;8.10;4.80;;;;;;;11.78;100.00;97218.89;111530;1244;25406;-78
2023/09/24 04:11:42;;;;;;;7.80;4.90;;;;;;;11.77;100.00;97217.73;111539;1244;22613;-78
2023/09/24 04:14:10;;;;;;;5.40;4.90;;;;;;;11.74;100.00;97220.86;111507;1244;23150;-77
2023/09/24 04:16:41;;;;;;;6.60;5.00;;;;;;;11.72;100.00;97225.73;111578;1244;25885;-78
2023/09/24 04:19:12;;;;;;;7.60;5.10;;;;;;;11.73;100.00;97231.45;111549;1244;22514;-78
2023/09/24 04:21:40;;;;;;;5.90;5.00;;;;;;;11.77;100.00;97240.41;111588;1244;22485;-78
2023/09/24 04:24:12;;;;;;;6.40;5.60;;;;;;;11.81;100.00;97245.30;111514;1244;25392;-77
2023/09/24 04:26:41;;;;;;;7.30;5.60;;;;;;;11.80;100.00;97246.80;111571;1244;22514;-78
2023/09/24 04:29:11;;;;;;;6.90;5.80;;;;;;;11.81;100.00;97244.56;111549;1244;22576;-78
2023/09/24 04:31:40;;;;;;;8.10;5.70;;;;;;;11.81;100.00;97244.52;111564;1244;22512;-77
2023/09/24 04:34:09;;;;;;;;;;;;;;;11.79;100.00;97244.83;111577;1244;23968;-77
2023/09/24 04:36:38;;;;;;;7.40;5.10;;;;;;;11.78;100.00;97246.04;111573;1244;22482;-77
2023/09/24 04:39:09;;;;;;;5.80;4.90;;;;;;;11.78;100.00;97252.25;111516;1244;22504;-78
2023/09/24 04:41:40;;;;;;;5.70;5.10;;;;;;;11.78;100.00;97261.27;111611;1244;22501;-78
2023/09/24 04:44:08;;;;;;;6.30;4.60;;;;;;;11.77;100.00;97265.80;111517;1244;22487;-78
2023/09/24 04:46:37;;;;;;;4.70;4.10;;;;;;;11.76;100.00;97264.15;111526;1244;23847;-78
2023/09/24 04:49:05;;;;;;;5.10;4.40;;;;;;;11.79;100.00;97267.94;111554;1244;22520;-78
2023/09/24 04:51:34;;;;;;;5.20;4.50;;;;;;;11.80;100.00;97269.48;111547;1244;25420;-78
2023/09/24 04:54:04;;;;;;;4.40;4.00;;;;;;;11.83;100.00;97272.36;111554;1244;22938;-78
2023/09/24 04:56:32;;;;;;;4.90;3.90;;;;;;;11.82;100.00;97272.57;111532;1244;22501;-78
2023/09/24 04:59:01;;;;;;;4.40;4.00;;;;;;;11.81;100.00;97272.55;111567;1244;23739;-78
2023/09/24 05:01:29;;;;;;;5.30;4.60;;;;;;;11.82;100.00;97268.21;111566;1244;23452;-78
2023/09/24 05:04:00;;;;;;;8.00;4.40;;;;;;;11.82;100.00;97271.56;111523;1244;22547;-77
2023/09/24 05:06:32;;;;;;;4.60;4.00;;;;;;;11.84;100.00;97279.16;111548;1243;22534;-78
2023/09/24 05:09:00;;;;;;;4.40;4.00;;;;;;;11.88;100.00;97281.53;111583;1244;22535;-78
2023/09/24 05:11:29;;;;;;;4.90;4.30;;;;;;;11.92;100.00;97282.00;111556;1244;25201;-77
2023/09/24 05:13:58;;;;;;;5.30;3.70;;;;;;;11.94;100.00;97279.76;111524;1244;23905;-77
2023/09/24 05:16:28;;;;;;;5.60;4.20;;;;;;;11.96;100.00;97284.00;111486;1244;25505;-78
2023/09/24 05:19:03;;;;;;;4.10;3.80;;;;;;;11.96;100.00;97283.38;111581;1244;22498;-77
2023/09/24 05:21:32;;;;;;;5.10;4.50;;;;;;;12.01;100.00;97291.50;111604;1237;22513;-78
2023/09/24 05:24:03;;;;;;;4.80;4.30;;;;;;;12.04;100.00;97295.73;111598;1244;25496;-78
2023/09/24 05:26:31;;;;;;;5.30;4.50;;;;;;;12.03;100.00;97303.55;111565;1244;25234;-78
2023/09/24 05:29:02;;;;;;;4.90;4.40;;;;;;;12.03;100.00;97305.68;111550;1244;23869;-77
2023/09/24 05:31:30;;;;;;;5.20;4.20;;;;;;;12.04;100.00;97305.36;111572;1244;22579;-77
2023/09/24 05:33:59;;;;;;;5.80;4.60;;;;;;;12.07;100.00;97302.73;111536;1244;22540;-77
2023/09/24 05:36:29;;;;;;;5.20;4.30;;;;;;;12.10;100.00;97312.84;111531;1244;22504;-77
2023/09/24 05:38:59;;;;;;;5.40;4.60;;;;;;;12.13;100.00;97316.98;111612;1244;24216;-77
2023/09/24 05:41:28;;;;;;;4.90;4.40;;;;;;;12.15;100.00;97320.48;111552;1244;22537;-77
2023/09/24 05:44:01;;;;;;;5.60;4.60;;;;;;;12.20;100.00;97318.48;111620;1244;22521;-77
2023/09/24 05:46:32;;;;;;;5.80;4.30;;;;;;;12.25;100.00;97313.27;111573;1244;22624;-77
2023/09/24 05:49:02;;;;;;;5.20;4.70;;;;;;;12.26;100.00;97305.77;111573;1244;22514;-77
2023/09/24 05:51:32;;;;;;;3.90;3.40;;;;;;;12.27;100.00;97307.89;111570;1244;23789;-77
2023/09/24 05:54:02;;;;;;;5.10;3.80;;;;;;;12.25;100.00;97309.08;111551;1244;24249;-77
2023/09/24 05:56:31;;;;;;;4.10;3.70;;;;;;;12.27;100.00;97310.66;111556;1244;22603;-77
2023/09/24 05:59:03;;;;;;;4.00;3.60;;;;;;;12.27;100.00;97308.70;111547;1244;24229;-77
2023/09/24 06:01:34;;;;;;;4.90;3.70;;;;;;;12.29;100.00;97301.45;111596;1244;22555;-77
2023/09/24 06:04:06;;;;;;;5.00;4.10;;;;;;;12.33;100.00;97297.29;111559;1244;37415;-77
2023/09/24 06:06:39;;;;;;;6.20;4.50;;;;;;;12.35;100.00;97301.90;111603;1244;22499;-77
2023/09/24 06:09:09;;;;;;;6.10;4.50;;;;;;;12.35;100.00;97312.48;111603;1244;22508;-77
2023/09/24 06:11:38;;;;;;;6.10;4.50;;;;;;;12.33;100.00;97315.30;111581;1244;22524;-77
2023/09/24 06:14:08;;;;;;;4.90;4.40;;;;;;;12.33;100.00;97321.91;111540;1239;30974;-77
2023/09/24 06:16:45;;;;;;;6.60;4.80;;;;;;;12.33;100.00;97329.09;111565;1244;22595;-77
2023/09/24 06:19:14;;;;;;;5.40;4.80;;;;;;;12.34;100.00;97335.14;111571;1244;22569;-77
2023/09/24 06:21:49;;;;;;;6.40;4.40;;;;;;;12.32;100.00;97340.73;111560;1244;24168;-77
2023/09/24 06:24:19;;;;;;;5.20;4.70;;;;;;;12.32;100.00;97335.09;111523;1244;45605;-77
2023/09/24 06:26:48;;;;;;;6.10;4.90;;;;;;;12.34;100.00;97340.40;111596;1244;22848;-77
2023/09/24 06:29:18;;;;;;;6.20;4.90;;;;;;;12.32;100.00;97341.48;111438;1244;24686;-77
2023/09/24 06:31:48;;;;;;;6.10;4.90;;;;;;;12.34;100.00;97344.86;111568;1244;22534;-77
2023/09/24 06:34:17;;;;;;;5.80;5.20;;;;;;;12.38;100.00;97355.98;111556;1244;22546;-77
2023/09/24 06:36:46;;;;;;;5.80;5.20;;;;;;;12.39;100.00;97354.16;111599;1244;23778;-77
2023/09/24 06:39:15;;;;;;;;;;;;;;;12.40;100.00;97359.17;111619;1244;25213;-77
2023/09/24 06:41:44;;;;;;;7.10;5.00;;;;;;;12.40;100.00;97366.83;111555;1244;22547;-77
2023/09/24 06:44:23;;;;;;;6.00;5.30;;;;;;;12.39;100.00;97378.05;111529;1244;57793;-77
2023/09/24 06:46:53;;;;;;;6.70;4.80;;;;;;;12.38;100.00;97382.46;111570;1244;23067;-77
2023/09/24 06:49:25;;;;;;;5.10;4.70;;;;;;;12.40;100.00;97383.73;111433;1244;22491;-77
2023/09/24 06:51:54;;;;;;;6.10;4.90;;;;;;;12.46;100.00;97386.27;111362;1244;22511;-77
2023/09/24 06:54:23;;;;;;;6.40;5.10;;;;;;;12.48;100.00;97388.27;111522;1233;22910;-77
2023/09/24 06:56:52;;;;;;;5.30;4.80;;;;;;;12.49;100.00;97398.05;111559;1244;22491;-77
2023/09/24 06:59:21;;;;;;;5.70;5.10;;;;;;;12.49;100.00;97402.42;111464;1244;22611;-77
2023/09/24 07:01:50;;;;;;;5.70;4.60;;;;;;;12.47;100.00;97402.59;111624;1244;22498;-77
2023/09/24 07:04:19;;;;;;;6.10;4.90;;;;;;;12.44;100.00;97407.06;111567;1244;22953;-77
2023/09/24 07:06:48;;;;;;;6.20;5.60;;;;;;;12.43;100.00;97412.28;111564;1244;22536;-77
2023/09/24 07:09:16;;;;;;;7.60;5.60;;;;;;;12.44;100.00;97418.52;111571;1244;22502;-77
2023/09/24 07:11:46;;;;;;;7.20;5.90;;;;;;;12.43;100.00;97423.08;111570;1244;25485;-77
2023/09/24 07:14:14;;;;;;;6.00;5.40;;;;;;;12.43;100.00;97427.81;111518;1244;28661;-78
2023/09/24 07:16:43;;;;;;;8.30;5.70;;;;;;;12.44;100.00;97431.48;111591;1244;22606;-77
2023/09/24 07:19:14;;;;;;;6.40;5.50;;;;;;;12.45;100.00;97428.45;111572;1244;22502;-77
2023/09/24 07:21:46;;;;;;;8.90;5.70;;;;;;;12.46;100.00;97426.15;111523;1244;24788;-78
2023/09/24 07:24:15;;;;;;;7.10;5.40;;;;;;;12.47;100.00;97424.23;111343;1243;22539;-77
2023/09/24 07:26:44;;;;;;;6.90;5.70;;;;;;;12.46;100.00;97418.55;111579;1244;22478;-77
2023/09/24 07:29:12;;;;;;;6.30;5.70;;;;;;;12.46;100.00;97412.48;111485;1244;22495;-77
2023/09/24 07:31:43;;;;;;;6.50;5.90;;;;;;;12.48;100.00;97415.45;111581;1237;22489;-77
2023/09/24 07:34:18;;;;;;;6.80;6.10;;;;;;;12.48;100.00;97414.23;111556;1244;29994;-77
2023/09/24 07:36:50;;;;;;;7.80;6.50;;;;;;;12.42;100.00;97410.06;111577;1244;22859;-77
2023/09/24 07:39:20;;;;;;;7.30;6.20;;;;;;;12.35;100.00;97408.78;109932;1244;2137259;-77
2023/09/24 07:41:49;;;;;;;6.70;6.00;;;;;;;12.32;100.00;97410.88;111588;1244;22495;-77
2023/09/24 07:44:19;;;;;;;6.70;6.00;;;;;;;12.36;100.00;97409.20;111627;1244;23685;-77
2023/09/24 07:46:48;;;;;;;6.40;5.80;;;;;;;12.41;100.00;97407.14;111566;1244;22576;-77
2023/09/24 07:49:17;;;;;;;6.80;6.10;;;;;;;12.44;100.00;97405.68;111608;1244;22525;-77
2023/09/24 07:51:45;;;;;;;7.00;6.30;;;;;;;12.47;100.00;97411.90;111572;1241;23724;-77
2023/09/24 07:54:14;;;;;;;6.30;5.70;;;;;;;12.47;100.00;97415.35;111555;1244;25452;-77
2023/09/24 07:56:46;;;;;;;7.20;5.60;;;;;;;12.43;100.00;97426.70;111593;1244;22540;-77
2023/09/24 07:59:15;;;;;;;6.00;5.30;;;;;;;12.37;100.00;97429.41;111595;1244;22511;-77
2023/09/24 08:01:44;;;;;;;7.20;5.70;;;;;;;12.34;100.00;97428.84;111580;1244;22520;-77
2023/09/24 08:04:15;;;;;;;7.30;6.30;;;;;;;12.33;100.00;97431.34;111594;1244;25259;-77
2023/09/24 08:06:43;;;;;;;8.20;6.90;;;;;;;12.36;100.00;97434.09;111384;1244;25386;-77
2023/09/24 08:09:12;;;;;;;8.10;7.20;;;;;;;12.39;100.00;97436.50;111500;1229;22508;-78
2023/09/24 08:11:43;;;;;;;8.20;7.30;;;;;;;12.42;100.00;97434.85;111502;1244;23630;-77
2023/09/24 08:14:12;;;;;;;7.90;7.10;;;;;;;12.48;100.00;97440.55;111623;1244;25280;-77
2023/09/24 08:16:44;;;;;;;7.40;6.70;;;;;;;12.52;100.00;97443.00;111542;1244;22478;-77
2023/09/24 08:19:15;;;;;;;8.30;7.40;;;;;;;12.52;100.00;97445.06;111547;1244;24175;-77
2023/09/24 08:21:45;;;;;;;9.30;7.20;;;;;;;12.58;100.00;97439.39;111497;1244;23765;-77
2023/09/24 08:24:18;;;;;;;9.00;7.50;;;;;;;12.64;100.00;97441.10;111508;1243;41976;-78
2023/09/24 08:26:50;;;;;;;7.70;6.70;;;;;;;12.69;100.00;97438.56;111534;1244;26434;-78
2023/09/24 08:29:22;;;;;;;8.20;6.60;;;;;;;12.77;100.00;97436.27;111580;1244;22608;-78
2023/09/24 08:31:51;;;;;;;9.00;7.20;;;;;;;12.87;100.00;97435.50;111562;1244;23867;-78
2023/09/24 08:34:21;;;;;;;6.70;6.10;;;;;;;12.93;100.00;97432.64;111611;1244;22519;-78
2023/09/24 08:36:50;;;;;;;6.20;5.00;;;;;;;12.97;100.00;97432.42;111577;1244;22494;-78
2023/09/24 08:39:22;;;;;;;5.20;4.60;;;;;;;13.00;100.00;97436.30;111570;1244;25357;-78
2023/09/24 08:41:58;;;;;;;5.00;4.30;;;;;;;13.00;100.00;97436.61;111496;1244;23009;-78
2023/09/24 08:44:36;;;;;;;4.80;4.30;;;;;;;13.02;100.00;97436.07;111623;1244;22492;-78
2023/09/24 08:47:05;;;;;;;5.60;3.60;;;;;;;13.04;100.00;97438.08;111552;1244;24854;-78
2023/09/24 08:49:33;;;;;;;4.60;4.10;;;;;;;13.06;100.00;97440.52;111571;1244;22650;-78
2023/09/24 08:52:07;;;;;;;4.00;3.60;;;;;;;13.08;100.00;97438.75;111584;1244;22614;-78
2023/09/24 08:54:40;;;;;;;4.30;3.90;;;;;;;13.06;100.00;97431.85;111480;1244;23309;-78
2023/09/24 08:57:14;;;;;;;5.70;4.20;;;;;;;12.99;100.00;97431.79;111592;1244;22628;-78
2023/09/24 08:59:43;;;;;;;5.60;4.20;;;;;;;12.97;100.00;97435.94;111591;1244;22499;-78
2023/09/24 09:02:18;;;;;;;5.80;4.50;;;;;;;12.90;100.00;97438.79;111591;1244;25245;-78
2023/09/24 09:04:51;;;;;;;5.50;3.90;;;;;;;12.94;100.00;97450.21;111626;1244;26520;-78
2023/09/24 09:07:19;;;;;;;5.20;4.60;;;;;;;13.03;100.00;97452.36;111561;1244;22516;-78
2023/09/24 09:10:02;;;;;;;4.90;4.40;;;;;;;13.06;100.00;97453.30;111594;1243;24297;-78
2023/09/24 09:12:32;;;;;;;5.60;4.00;;;;;;;13.08;100.00;97455.58;111667;1244;22523;-78
2023/09/24 09:15:15;;;;;;;5.80;4.60;;;;;;;13.09;100.00;97458.58;111590;1244;24631;-78
2023/09/24 09:17:44;;;;;;;5.00;4.10;;;;;;;13.08;100.00;97463.89;111599;1244;22511;-78
2023/09/24 09:20:13;;;;;;;8.30;4.90;;;;;;;13.07;100.00;97473.27;111574;1244;24860;-78
2023/09/24 09:22:48;;;;;;;4.40;4.00;;;;;;;13.02;100.00;97477.77;111586;1244;26437;-78
2023/09/24 09:25:21;;;;;;;5.60;4.70;;;;;;;13.00;100.00;97473.77;111545;1244;47065;-77
2023/09/24 09:27:50;;;;;;;6.20;4.70;;;;;;;13.01;100.00;97470.41;111633;1244;22778;-77
2023/09/24 09:30:23;;;;;;;5.20;4.50;;;;;;;13.06;100.00;97473.38;111576;1244;22531;-77
2023/09/24 09:32:55;;;;;;;6.40;4.60;;;;;;;13.10;100.00;97481.63;111639;1244;22592;-77
2023/09/24 09:35:32;;;;;;;4.70;4.20;;;;;;;13.05;100.00;97484.34;111560;1244;42779;-77
2023/09/24 09:38:12;;;;;;;5.80;4.40;;;;;;;13.00;100.00;97486.81;111579;1244;22493;-77
2023/09/24 09:40:48;;;;;;;4.40;4.00;;;;;;;12.94;100.00;97484.17;111610;1244;22664;-77
2023/09/24 09:43:20;;;;;;;6.10;4.30;;;;;;;12.93;100.00;97482.52;111608;1244;22964;-77
2023/09/24 09:45:50;;;;;;;6.10;4.70;;;;;;;12.94;100.00;97486.24;111694;1244;22682;-78
2023/09/24 09:48:30;;;;;;;5.50;4.80;;;;;;;12.97;100.00;97481.25;111588;1244;22730;-77
2023/09/24 09:51:06;;;;;;;4.90;4.40;;;;;;;13.03;100.00;97479.20;111616;1244;22505;-77
2023/09/24 09:53:38;;;;;;;5.50;4.60;;;;;;;13.01;100.00;97484.05;111585;1244;22485;-77
2023/09/24 09:56:10;;;;;;;5.50;4.90;;;;;;;13.00;100.00;97494.59;111612;1244;22484;-78
2023/09/24 09:58:41;;;;;;;5.40;4.70;;;;;;;12.98;100.00;97495.56;111663;1244;23459;-77
2023/09/24 10:01:10;;;;;;;6.30;5.20;;;;;;;12.94;100.00;97495.09;111628;1244;22508;-78
2023/09/24 10:03:42;;;;;;;6.40;5.10;;;;;;;12.93;100.00;97493.75;111605;1244;22537;-77
2023/09/24 10:06:12;;;;;;;6.10;5.50;;;;;;;12.90;100.00;97487.59;111649;1244;22607;-77
2023/09/24 10:08:45;;;;;;;4.80;4.30;;;;;;;12.88;100.00;97485.47;111630;1244;22504;-77
2023/09/24 10:12:01;;;;;;;7.10;5.30;;;;;;;12.86;100.00;97492.24;111627;1244;22499;-78
2023/09/24 10:14:34;;;;;;;6.20;4.80;;;;;;;12.86;100.00;97496.98;111234;1244;22516;-78
2023/09/24 10:17:26;;;;;;;5.50;4.90;;;;;;;12.87;100.00;97502.56;111624;1244;22482;-77
2023/09/24 10:20:07;;;;;;;5.40;4.70;;;;;;;12.84;100.00;97508.70;111605;1244;23391;-77
2023/09/24 10:22:42;;;;;;;5.70;5.00;;;;;;;12.81;100.00;97508.06;111654;1244;22498;-77
2023/09/24 10:25:37;;;;;;;6.00;5.40;;;;;;;12.83;100.00;97502.90;111564;1244;38014;-77
2023/09/24 10:28:08;;;;;;;6.10;5.20;;;;;;;12.86;100.00;97499.59;111652;1244;22492;-77
2023/09/24 10:31:06;;;;;;;6.50;5.80;;;;;;;12.89;100.00;97497.07;111623;1244;22510;-77
2023/09/24 10:33:57;;;;;;;6.00;5.10;;;;;;;12.91;100.00;97495.94;111683;1244;25966;-77
2023/09/24 10:36:33;;;;;;;5.60;5.10;;;;;;;12.91;100.00;97482.79;111594;1229;22502;-77
2023/09/24 10:39:05;;;;;;;6.30;5.70;;;;;;;12.97;100.00;97481.02;111622;1244;22618;-77
2023/09/24 10:41:36;;;;;;;6.80;6.10;;;;;;;13.02;100.00;97486.22;111589;1244;22524;-77
2023/09/24 10:44:24;;;;;;;7.20;5.60;;;;;;;13.07;100.00;97490.67;111351;1244;22651;-77
2023/09/24 10:46:55;;;;;;;6.30;5.70;;;;;;;13.06;100.00;97494.35;111660;1244;22529;-77
2023/09/24 10:49:26;;;;;;;6.40;5.60;;;;;;;13.02;100.00;97496.61;111652;1244;22505;-77
2023/09/24 10:52:01;;;;;;;6.60;5.80;;;;;;;13.01;100.00;97489.21;111658;1244;25071;-77
2023/09/24 10:54:32;;;;;;;5.70;5.20;;;;;;;13.03;100.00;97494.73;111629;1244;22590;-77
2023/09/24 10:57:03;;;;;;;6.20;5.60;;;;;;;13.03;100.00;97489.89;111662;1244;22514;-77
2023/09/24 10:59:37;;;;;;;5.50;4.90;;;;;;;13.05;100.00;97497.06;111682;1244;23205;-77
2023/09/24 11:02:21;;;;;;;6.00;5.20;;;;;;;13.06;100.00;97492.70;111634;1244;22550;-77
2023/09/24 11:04:52;;;;;;;7.00;4.70;;;;;;;13.11;100.00;97490.51;111673;1244;22647;-77
2023/09/24 11:07:24;;;;;;;6.90;5.00;;;;;;;13.11;100.00;97490.89;111682;1244;22520;-77
2023/09/24 11:10:05;;;;;;;4.90;4.10;;;;;;;13.12;100.00;97489.02;111635;1244;23175;-77
2023/09/24 11:12:38;;;;;;;5.40;4.50;;;;;;;13.17;100.00;97491.87;111705;1244;22596;-77
2023/09/24 11:15:25;;;;;;;5.80;5.00;;;;;;;13.26;100.00;97484.14;111600;1236;58917;-77
2023/09/24 11:17:55;;;;;;;5.80;4.50;;;;;;;13.35;100.00;97487.27;111664;1244;25395;-77
2023/09/24 11:20:28;;;;;;;6.00;4.80;;;;;;;13.36;100.00;97486.25;111645;1244;22506;-77
2023/09/24 11:23:02;;;;;;;5.40;4.60;;;;;;;13.38;100.00;97484.45;111618;1244;22522;-77
2023/09/24 11:25:34;;;;;;;5.50;4.80;;;;;;;13.39;100.00;97481.63;111550;1244;22511;-77
2023/09/24 11:28:04;;;;;;;5.30;4.60;;;;;;;13.35;100.00;97479.98;111652;1244;22493;-77
2023/09/24 11:30:43;;;;;;;5.10;4.20;;;;;;;13.28;100.00;97484.50;111681;1244;22532;-77
2023/09/24 11:33:18;;;;;;;4.60;4.10;;;;;;;13.21;100.00;97483.92;111667;1244;24226;-77
2023/09/24 11:35:50;;;;;;;4.90;4.30;;;;;;;13.18;100.00;97481.80;111622;1244;22994;-77